createdAt,value
2023-11-20T00:04:22.331Z,12.80
2023-11-20T00:10:05.127Z,15.48
2023-11-20T00:15:29.768Z,18.13
2023-11-20T00:20:53.307Z,14.85
2023-11-20T00:26:16.927Z,17.27
2023-11-20T00:31:50.452Z,15.70
2023-11-20T00:37:16.152Z,16.30
2023-11-20T00:42:41.033Z,14.90
2023-11-20T00:48:06.728Z,14.88
2023-11-20T00:53:30.075Z,16.08
2023-11-20T00:58:53.579Z,15.40
2023-11-20T01:04:18.398Z,16.58
2023-11-20T01:09:42.716Z,14.67
2023-11-20T01:15:08.806Z,17.58
2023-11-20T01:20:33.946Z,18.30
2023-11-20T01:25:57.532Z,17.95
2023-11-20T01:31:21.109Z,18.00
2023-11-20T01:36:46.813Z,20.40
2023-11-20T01:42:10.521Z,22.15
2023-11-20T01:47:36.609Z,20.65
2023-11-20T01:53:04.724Z,21.05
2023-11-20T01:58:28.737Z,20.23
2023-11-20T02:03:59.777Z,17.43
2023-11-20T02:09:24.414Z,20.58
2023-11-20T02:14:47.954Z,18.17
2023-11-20T02:20:11.887Z,20.92
2023-11-20T02:25:36.722Z,21.55
2023-11-20T02:31:01.667Z,27.03
2023-11-20T02:36:26.235Z,23.58
2023-11-20T02:41:49.810Z,19.27
2023-11-20T02:47:14.611Z,18.48
2023-11-20T02:52:37.937Z,18.58
2023-11-20T02:58:02.572Z,17.97
2023-11-20T03:03:27.529Z,20.05
2023-11-20T03:08:51.011Z,22.65
2023-11-20T03:14:14.624Z,17.77
2023-11-20T03:19:39.424Z,19.95
2023-11-20T03:25:03.342Z,19.07
2023-11-20T03:30:27.039Z,16.98
2023-11-20T03:35:51.938Z,21.92
2023-11-20T03:41:17.187Z,23.30
2023-11-20T03:46:40.458Z,19.45
2023-11-20T03:52:05.730Z,20.00
2023-11-20T03:57:29.067Z,17.30
2023-11-20T04:02:52.725Z,20.42
2023-11-20T04:08:17.656Z,18.77
2023-11-20T04:13:41.233Z,16.50
2023-11-20T04:19:04.981Z,19.77
2023-11-20T04:24:30.575Z,16.50
2023-11-20T04:29:54.520Z,13.73
2023-11-20T04:35:18.197Z,15.38
2023-11-20T04:40:43.438Z,17.23
2023-11-20T04:46:09.814Z,17.50
2023-11-20T04:51:33.525Z,16.33
2023-11-20T04:56:58.172Z,16.90
2023-11-20T05:02:21.689Z,15.82
2023-11-20T05:07:45.288Z,14.50
2023-11-20T05:13:10.252Z,15.50
2023-11-20T05:18:33.689Z,12.93
2023-11-20T05:23:57.227Z,14.52
2023-11-20T05:29:22.213Z,15.25
2023-11-20T05:34:45.759Z,14.45
2023-11-20T05:40:10.718Z,15.53
2023-11-20T05:45:35.388Z,15.20
2023-11-20T05:50:58.768Z,13.68
2023-11-20T05:56:22.275Z,13.45
2023-11-20T06:01:47.425Z,13.18
2023-11-20T06:13:00.081Z,13.32
2023-11-20T06:18:25.700Z,15.30
2023-11-20T06:23:55.284Z,16.75
2023-11-20T06:29:19.178Z,14.48
2023-11-20T06:34:45.047Z,15.53
2023-11-20T06:47:57.444Z,16.15
2023-11-20T06:54:53.880Z,15.20
2023-11-20T07:14:17.230Z,13.02
2023-11-20T07:34:04.432Z,17.92
2023-11-20T07:39:51.003Z,20.37
2023-11-20T07:45:15.605Z,35.22
2023-11-20T07:50:47.522Z,20.85
2023-11-20T07:56:11.770Z,15.63
2023-11-20T08:01:36.074Z,17.30
2023-11-20T08:07:14.482Z,24.27
2023-11-20T08:13:15.581Z,15.10
2023-11-20T08:18:42.825Z,9.98
2023-11-20T08:24:10.340Z,11.98
2023-11-20T08:29:33.637Z,14.52
2023-11-20T08:34:57.920Z,15.63
2023-11-20T08:40:28.205Z,16.90
2023-11-20T08:46:09.158Z,15.73
2023-11-20T08:51:49.241Z,15.80
2023-11-20T08:57:26.043Z,14.80
2023-11-20T09:02:51.398Z,18.13
2023-11-20T09:08:19.586Z,14.65
2023-11-20T09:13:47.730Z,11.77
2023-11-20T09:19:14.391Z,12.93
2023-11-20T09:24:46.929Z,15.25
2023-11-20T09:30:36.897Z,10.13
2023-11-20T09:36:15.425Z,13.02
2023-11-20T09:41:43.226Z,9.00
2023-11-20T09:47:11.268Z,10.85
2023-11-20T09:52:40.332Z,10.15
2023-11-20T09:58:09.263Z,12.77
2023-11-20T10:03:41.767Z,9.02
2023-11-20T10:09:38.011Z,9.02
2023-11-20T10:15:02.393Z,8.43
2023-11-20T10:20:54.520Z,10.27
2023-11-20T10:26:26.433Z,11.30
2023-11-20T10:31:55.638Z,14.07
2023-11-20T10:37:59.321Z,10.07
2023-11-20T10:43:35.931Z,16.92
2023-11-20T10:49:11.476Z,14.85
2023-11-20T10:54:52.250Z,10.67
2023-11-20T11:00:19.065Z,7.90
2023-11-20T11:05:49.743Z,14.45
2023-11-20T11:12:02.483Z,8.25
2023-11-20T11:17:57.296Z,8.35
2023-11-20T11:23:49.545Z,10.80
2023-11-20T11:29:28.802Z,12.68
2023-11-20T11:35:31.639Z,14.57
2023-11-20T11:41:27.613Z,9.45
2023-11-20T11:46:58.882Z,8.68
2023-11-20T11:52:28.678Z,13.77
2023-11-20T11:58:01.053Z,11.32
2023-11-20T12:03:43.565Z,14.13
2023-11-20T12:09:10.729Z,14.85
2023-11-20T12:14:40.933Z,12.05
2023-11-20T12:20:10.483Z,20.20
2023-11-20T12:26:18.502Z,18.73
2023-11-20T12:31:57.717Z,19.55
2023-11-20T12:37:45.139Z,13.45
2023-11-20T12:43:11.046Z,11.88
2023-11-20T12:49:01.650Z,12.67
2023-11-20T12:54:32.198Z,12.55
2023-11-20T12:59:56.430Z,13.93
2023-11-20T13:05:25.405Z,13.80
2023-11-20T13:10:56.345Z,13.85
2023-11-20T13:16:27.495Z,12.60
2023-11-20T13:22:02.646Z,18.13
2023-11-20T13:27:28.019Z,16.35
2023-11-20T13:32:55.753Z,20.13
2023-11-20T13:38:20.288Z,18.23
2023-11-20T13:43:46.023Z,18.10
2023-11-20T13:49:09.783Z,12.73
2023-11-20T13:54:35.404Z,11.18
2023-11-20T14:00:09.720Z,16.38
2023-11-20T14:05:43.714Z,12.20
2023-11-20T14:11:10.715Z,16.60
2023-11-20T14:16:43.011Z,44.03
2023-11-20T14:22:08.602Z,35.53
2023-11-20T14:27:31.815Z,17.45
2023-11-20T14:32:58.164Z,13.65
2023-11-20T14:38:43.988Z,26.93
2023-11-20T14:44:08.985Z,13.77
2023-11-20T14:49:40.489Z,16.00
2023-11-20T14:55:08.843Z,14.13
2023-11-20T15:00:35.442Z,15.52
2023-11-20T15:06:00.805Z,19.27
2023-11-20T15:11:26.987Z,27.48
2023-11-20T15:16:50.278Z,26.45
2023-11-20T15:22:15.159Z,25.73
2023-11-20T15:27:45.018Z,14.95
2023-11-20T15:33:08.528Z,19.37
2023-11-20T15:38:33.373Z,19.67
2023-11-20T15:43:56.698Z,21.67
2023-11-20T15:49:20.014Z,28.75
2023-11-20T15:54:44.883Z,29.80
2023-11-20T16:00:10.412Z,38.50
2023-11-20T16:05:36.252Z,32.03
2023-11-20T16:11:00.968Z,29.63
2023-11-20T16:16:24.283Z,10.55
2023-11-20T16:21:47.928Z,13.38
2023-11-20T16:27:13.461Z,18.27
2023-11-20T16:32:36.585Z,18.17
2023-11-20T16:37:59.770Z,17.08
2023-11-20T16:43:24.551Z,10.90
2023-11-20T16:48:47.686Z,12.48
2023-11-20T16:54:10.776Z,12.53
2023-11-20T16:59:35.384Z,12.50
2023-11-20T17:05:00.357Z,13.82
2023-11-20T17:10:27.089Z,18.20
2023-11-20T17:15:51.778Z,19.90
2023-11-20T17:21:17.706Z,17.17
2023-11-20T17:26:41.976Z,15.35
2023-11-20T17:32:07.668Z,15.75
2023-11-20T17:37:30.934Z,17.67
2023-11-20T17:42:54.356Z,18.60
2023-11-20T17:48:19.016Z,10.03
2023-11-20T17:53:42.258Z,13.07
2023-11-20T17:59:08.714Z,13.52
2023-11-20T18:04:36.370Z,13.23
2023-11-20T18:10:00.260Z,15.68
2023-11-20T18:15:25.310Z,20.00
2023-11-20T18:20:50.260Z,16.67
2023-11-20T18:26:13.325Z,14.07
2023-11-20T18:31:36.459Z,21.08
2023-11-20T18:37:01.512Z,12.13
2023-11-20T18:42:25.018Z,14.67
2023-11-20T18:47:48.483Z,15.35
2023-11-20T18:53:13.200Z,14.65
2023-11-20T18:58:36.573Z,13.77
2023-11-20T19:03:59.754Z,16.55
2023-11-20T19:09:24.883Z,15.23
2023-11-20T19:14:49.346Z,15.30
2023-11-20T19:20:13.637Z,18.70
2023-11-20T19:25:39.017Z,18.83
2023-11-20T19:31:02.159Z,17.08
2023-11-20T19:36:28.973Z,18.87
2023-11-20T19:41:53.383Z,18.92
2023-11-20T19:47:16.720Z,18.38
2023-11-20T19:52:39.925Z,17.10
2023-11-20T19:58:04.611Z,20.25
2023-11-20T20:03:27.919Z,23.17
2023-11-20T20:08:51.154Z,27.05
2023-11-20T20:14:16.023Z,21.65
2023-11-20T20:19:39.252Z,19.08
2023-11-20T20:25:02.968Z,16.83
2023-11-20T20:30:28.138Z,18.43
2023-11-20T20:35:51.370Z,17.48
2023-11-20T20:41:14.689Z,24.35
2023-11-20T20:46:39.396Z,28.02
2023-11-20T20:52:03.231Z,24.33
2023-11-20T20:57:26.882Z,22.83
2023-11-20T21:02:51.768Z,18.52
2023-11-20T21:08:15.118Z,24.05
2023-11-20T21:13:38.801Z,23.08
2023-11-20T21:19:03.680Z,23.58
2023-11-20T21:24:26.987Z,23.73
2023-11-20T21:29:50.129Z,20.60
2023-11-20T21:35:14.646Z,20.85
2023-11-20T21:40:37.617Z,19.35
2023-11-20T21:46:00.844Z,19.65
2023-11-20T21:51:25.411Z,17.63
2023-11-20T21:56:48.747Z,18.08
2023-11-20T22:02:12.214Z,19.13
2023-11-20T22:07:36.906Z,21.45
2023-11-20T22:12:59.954Z,18.90
2023-11-20T22:18:23.442Z,22.17
2023-11-20T22:23:48.233Z,19.45
2023-11-20T22:29:11.211Z,19.40
2023-11-20T22:34:35.621Z,19.25
2023-11-20T22:40:00.474Z,19.38
2023-11-20T22:45:23.784Z,20.43
2023-11-20T22:50:46.873Z,17.92
2023-11-20T22:56:11.900Z,18.98
2023-11-20T23:01:35.207Z,18.48
2023-11-20T23:06:58.584Z,23.73
2023-11-20T23:12:23.319Z,25.83
2023-11-20T23:17:46.769Z,27.52
2023-11-20T23:23:10.283Z,26.75
2023-11-20T23:28:38.344Z,20.92
2023-11-20T23:34:01.594Z,17.23
2023-11-20T23:39:24.849Z,22.17
2023-11-20T23:44:49.549Z,21.70
2023-11-20T23:50:13.015Z,21.90
2023-11-20T23:55:36.209Z,21.75
